Time;durP1;ratioP1;P1;durP2;ratioP2;P2;SDS_P1;SDS_P2;PMS_P1;PMS_P2;Temp;Humidity;BMP_temperature;BMP_pressure;BME280_temperature;BME280_humidity;BME280_pressure;Samples;Min_cycle;Max_cycle;Signal;HPM_P1;HPM_P2
2023/07/26 00:00:06;;;;;;;2.23;1.53;;;17.30;76.00;;;20.08;50.16;100782.44;4994780;28;20247;-60
2023/07/26 00:02:33;;;;;;;2.37;2.07;;;17.30;76.20;;;20.06;50.18;100781.03;4993542;28;20298;-60
2023/07/26 00:05:00;;;;;;;3.97;1.80;;;17.20;76.20;;;20.03;50.84;100782.31;4994932;28;20274;-61
2023/07/26 00:07:27;;;;;;;3.70;1.80;;;17.20;76.30;;;20.01;50.34;100784.44;4994915;28;20283;-61
2023/07/26 00:09:55;;;;;;;2.73;1.50;;;17.20;76.70;;;19.99;50.54;100781.16;4994542;28;20688;-57
2023/07/26 00:12:22;;;;;;;5.97;1.97;;;17.20;76.50;;;19.96;50.79;100776.28;4994828;28;20310;-59
2023/07/26 00:14:49;;;;;;;2.00;1.70;;;17.20;76.80;;;19.94;51.05;100773.06;4995000;28;20218;-61
2023/07/26 00:17:17;;;;;;;3.60;1.90;;;17.10;76.80;;;19.94;50.97;100783.75;4994712;28;20290;-56
2023/07/26 00:19:44;;;;;;;2.80;1.90;;;17.10;77.00;;;19.93;51.17;100784.78;4994223;28;20290;-61
2023/07/26 00:22:12;;;;;;;2.30;1.70;;;17.10;76.80;;;19.91;51.16;100783.38;4995001;28;20192;-60
2023/07/26 00:24:39;;;;;;;6.63;2.37;;;17.10;76.80;;;19.89;50.94;100785.47;4994596;28;20728;-59
2023/07/26 00:27:06;;;;;;;3.47;1.80;;;17.10;77.10;;;19.88;50.80;100787.34;4994414;28;20242;-61
2023/07/26 00:29:33;;;;;;;4.80;1.90;;;17.10;77.00;;;19.85;51.21;100787.00;4994162;28;20243;-61
2023/07/26 00:32:00;;;;;;;2.67;2.27;;;17.00;77.00;;;19.85;51.57;100795.03;4994569;28;20226;-61
2023/07/26 00:34:28;;;;;;;5.23;1.77;;;17.00;77.50;;;19.84;51.39;100791.53;4994797;28;20223;-60
2023/07/26 00:36:55;;;;;;;2.50;2.23;;;17.00;77.60;;;19.83;51.36;100803.25;4994594;28;20748;-59
2023/07/26 00:39:22;;;;;;;3.23;1.97;;;17.00;77.40;;;19.84;51.04;100801.41;4993974;28;20208;-61
2023/07/26 00:41:49;;;;;;;4.90;2.50;;;17.00;77.60;;;19.83;51.52;100808.59;4994475;28;20195;-61
2023/07/26 00:44:16;;;;;;;2.93;2.20;;;17.00;77.60;;;19.84;51.32;100804.88;4994347;28;20203;-57
2023/07/26 00:46:43;;;;;;;2.67;2.27;;;17.00;77.50;;;19.88;51.31;100799.88;4994456;28;20219;-60
2023/07/26 00:49:11;;;;;;;2.50;1.60;;;17.00;77.80;;;19.91;51.58;100800.22;4995820;28;20211;-60
2023/07/26 00:51:40;;;;;;;2.47;1.87;;;17.00;77.70;;;19.95;51.16;100806.72;5013787;28;20266;-60
2023/07/26 00:54:09;;;;;;;3.07;1.87;;;17.00;77.80;;;19.98;51.37;100808.94;5006684;28;20242;-61
2023/07/26 00:56:36;;;;;;;3.33;1.47;;;17.10;77.70;;;19.98;51.02;100811.63;4994684;28;20286;-61
2023/07/26 00:59:04;;;;;;;3.60;2.13;;;17.10;77.60;;;19.97;51.22;100809.97;4992450;28;20286;-60
2023/07/26 01:01:34;;;;;;;2.40;1.70;;;17.10;77.40;;;19.94;50.96;100810.47;4994227;28;20203;-62
2023/07/26 01:04:01;;;;;;;3.83;2.00;;;17.10;77.30;;;19.92;50.76;100807.19;4995645;28;20274;-60
2023/07/26 01:06:46;;;;;;;3.70;1.83;;;17.00;77.40;;;19.86;51.14;100818.81;5000722;28;20191;-64
2023/07/26 01:09:24;;;;;;;4.70;2.30;;;17.00;77.40;;;19.83;50.92;100805.09;5000383;28;20301;-61
2023/07/26 01:12:01;;;;;;;3.20;2.13;;;17.00;77.40;;;19.81;51.32;100809.88;5000574;28;20219;-60
2023/07/26 01:14:40;;;;;;;2.10;1.80;;;17.00;77.40;;;19.76;51.37;100807.91;5000394;28;20489;-60
2023/07/26 01:17:07;;;;;;;3.07;2.10;;;16.90;77.50;;;19.72;51.39;100804.06;5000416;28;20253;-59
2023/07/26 01:19:34;;;;;;;2.73;1.90;;;16.90;77.50;;;19.70;51.34;100811.50;5000055;28;20211;-59
2023/07/26 01:22:03;;;;;;;2.50;1.73;;;16.90;77.70;;;19.68;51.28;100800.25;5000745;28;20251;-60
2023/07/26 01:24:31;;;;;;;5.43;2.20;;;16.80;77.80;;;19.66;51.74;100799.66;5000526;28;20241;-61
2023/07/26 01:26:58;;;;;;;3.67;1.80;;;16.80;78.00;;;19.66;51.39;100813.00;5000458;28;20250;-61
2023/07/26 01:29:25;;;;;;;4.73;2.00;;;16.80;78.00;;;19.65;51.71;100806.06;4999923;28;20289;-61
2023/07/26 01:31:52;;;;;;;4.03;2.20;;;16.80;78.10;;;19.65;51.70;100803.38;5000416;28;20314;-61
2023/07/26 01:34:20;;;;;;;3.77;2.30;;;16.80;78.20;;;19.65;51.68;100806.06;5000506;28;20685;-60
2023/07/26 01:36:51;;;;;;;3.83;2.30;;;16.70;78.30;;;19.65;51.71;100806.06;5000217;28;20676;-58
2023/07/26 01:39:20;;;;;;;5.17;2.00;;;16.70;78.30;;;19.63;51.39;100800.13;4999579;28;20314;-61
2023/07/26 01:41:48;;;;;;;2.63;1.70;;;16.80;78.30;;;19.64;51.31;100807.09;5000299;28;20219;-61
2023/07/26 01:44:15;;;;;;;4.53;2.23;;;16.70;78.10;;;19.64;51.38;100811.59;4999982;28;20204;-59
2023/07/26 01:46:42;;;;;;;2.70;1.97;;;16.80;78.10;;;19.62;51.37;100806.50;5000252;28;20286;-60
2023/07/26 01:49:10;;;;;;;2.37;1.50;;;16.80;78.20;;;19.62;51.57;100811.84;5001634;28;20216;-60
2023/07/26 01:51:38;;;;;;;2.57;1.90;;;16.70;78.10;;;19.60;51.68;100816.63;5018494;28;20586;-60
2023/07/26 01:54:08;;;;;;;2.23;1.80;;;16.70;78.10;;;19.56;51.63;100816.25;5019930;28;20278;-60
2023/07/26 01:56:36;;;;;;;3.60;1.60;;;16.70;78.00;;;19.55;51.79;100821.81;5020393;28;20603;-60
2023/07/26 01:59:06;;;;;;;2.63;2.00;;;16.70;78.20;;;19.52;51.62;100822.28;5001382;28;20762;-60
2023/07/26 02:01:33;;;;;;;4.90;1.87;;;16.70;78.20;;;19.51;51.69;100815.34;4999927;28;20283;-61
2023/07/26 02:04:00;;;;;;;3.57;1.73;;;16.60;78.20;;;19.47;51.59;100814.16;5000115;28;20202;-61
2023/07/26 02:06:27;;;;;;;3.00;2.13;;;16.60;78.20;;;19.46;51.83;100818.69;5000278;28;20274;-61
2023/07/26 02:08:54;;;;;;;2.43;1.70;;;16.60;78.30;;;19.48;51.67;100821.13;4999883;28;20220;-61
2023/07/26 02:11:21;;;;;;;3.07;2.00;;;16.60;78.40;;;19.48;51.90;100821.94;5000289;28;20222;-61
2023/07/26 02:13:50;;;;;;;3.10;1.80;;;16.60;78.40;;;19.52;51.69;100824.94;5000076;28;20299;-60
2023/07/26 02:16:17;;;;;;;4.67;1.87;;;16.60;78.40;;;19.54;51.62;100828.19;4997113;28;20285;-58
2023/07/26 02:18:44;;;;;;;4.10;2.20;;;16.60;78.30;;;19.51;51.95;100826.00;4996835;28;20192;-61
2023/07/26 02:21:11;;;;;;;2.97;1.80;;;16.60;78.30;;;19.47;51.68;100830.16;4996807;28;20192;-61
2023/07/26 02:23:38;;;;;;;2.73;2.20;;;16.60;78.40;;;19.47;51.69;100830.16;4996541;28;20270;-60
2023/07/26 02:26:05;;;;;;;2.63;1.70;;;16.60;78.30;;;19.44;52.13;100825.31;4996641;28;20288;-60
2023/07/26 02:28:32;;;;;;;5.67;2.10;;;16.60;78.40;;;19.44;51.94;100833.31;4996665;28;20278;-61
2023/07/26 02:31:00;;;;;;;2.13;1.93;;;16.60;78.70;;;19.46;51.90;100820.56;4996610;28;20246;-60
2023/07/26 02:33:27;;;;;;;3.07;1.83;;;16.60;78.80;;;19.48;52.18;100826.47;4996264;28;20622;-60
2023/07/26 02:35:57;;;;;;;3.77;1.77;;;16.60;78.90;;;19.50;51.93;100824.38;4996402;28;20631;-61
2023/07/26 02:38:24;;;;;;;3.80;1.97;;;16.60;78.90;;;19.50;52.13;100822.53;4996496;28;20668;-59
2023/07/26 02:40:51;;;;;;;2.83;1.50;;;16.60;78.90;;;19.52;51.90;100824.94;4996348;28;20760;-61
2023/07/26 02:43:18;;;;;;;3.97;2.20;;;16.60;78.90;;;19.56;51.80;100828.81;4996373;28;20215;-60
2023/07/26 02:46:06;;;;;;;2.50;1.93;;;16.60;78.90;;;19.57;52.03;100825.06;4996375;28;20200;-60
2023/07/26 02:48:33;;;;;;;2.43;1.67;;;16.60;78.80;;;19.58;51.75;100824.03;4996355;28;20234;-61
2023/07/26 02:51:00;;;;;;;2.60;2.20;;;16.60;78.70;;;19.55;51.57;100824.50;5012584;28;20696;-60
2023/07/26 02:53:27;;;;;;;3.53;1.87;;;16.60;78.60;;;19.52;51.59;100817.75;5015962;28;20219;-57
2023/07/26 02:55:54;;;;;;;6.87;2.00;;;16.60;78.50;;;19.48;51.94;100821.13;5015564;28;20246;-61
2023/07/26 02:58:21;;;;;;;2.83;1.70;;;16.60;78.50;;;19.44;51.87;100826.13;5003083;28;20736;-61
2023/07/26 03:00:51;;;;;;;3.70;1.93;;;16.60;78.70;;;19.41;52.05;100815.09;4996002;28;20278;-61
2023/07/26 03:03:20;;;;;;;4.47;2.00;;;16.60;78.70;;;19.38;52.20;100815.53;4995126;28;20246;-61
2023/07/26 03:05:47;;;;;;;4.23;2.17;;;16.50;78.70;;;19.39;52.21;100825.19;4996188;28;20651;-60
2023/07/26 03:08:14;;;;;;;2.60;2.30;;;16.50;78.90;;;19.37;51.96;100829.94;4996128;28;20196;-59
2023/07/26 03:10:41;;;;;;;2.27;1.93;;;16.50;78.80;;;19.34;52.21;100827.69;4995664;28;20227;-58
2023/07/26 03:13:08;;;;;;;4.33;2.13;;;16.50;78.90;;;19.32;52.35;100825.25;4995781;28;20211;-61
2023/07/26 03:15:39;;;;;;;3.33;2.10;;;16.50;79.00;;;19.27;52.45;100822.47;4995449;28;20200;-59
2023/07/26 03:18:06;;;;;;;6.23;2.43;;;16.50;79.00;;;19.24;52.64;100822.91;4995892;28;20234;-61
2023/07/26 03:20:34;;;;;;;2.83;1.90;;;16.40;79.00;;;19.22;52.35;100821.50;4995312;28;20220;-60
2023/07/26 03:23:02;;;;;;;2.93;1.80;;;16.40;79.10;;;19.18;52.62;100821.19;4995558;28;20246;-60
2023/07/26 03:25:29;;;;;;;3.63;2.20;;;16.40;79.10;;;19.15;52.50;100826.16;4995560;28;20672;-59
2023/07/26 03:27:56;;;;;;;3.77;2.17;;;16.40;79.20;;;19.12;52.71;100826.59;4995467;28;20236;-58
2023/07/26 03:30:23;;;;;;;2.40;2.20;;;16.30;79.20;;;19.11;52.80;100830.31;4995419;28;20224;-61
2023/07/26 03:32:50;;;;;;;4.23;2.13;;;16.30;79.40;;;19.12;52.77;100830.06;4995234;28;20243;-59
2023/07/26 03:35:17;;;;;;;3.73;2.07;;;16.30;79.50;;;19.14;52.67;100829.84;4995345;28;20203;-60
2023/07/26 03:37:46;;;;;;;2.57;2.20;;;16.30;79.50;;;19.14;52.80;100829.84;4995430;28;20615;-61
2023/07/26 03:40:13;;;;;;;2.20;2.00;;;16.30;79.60;;;19.12;52.59;100826.59;4995028;28;20270;-60
2023/07/26 03:42:40;;;;;;;2.30;1.60;;;16.30;79.60;;;19.10;52.77;100829.50;4995363;28;20278;-58
2023/07/26 03:45:08;;;;;;;3.93;2.23;;;16.30;79.60;;;19.14;52.79;100829.84;4995345;28;20661;-57
2023/07/26 03:47:35;;;;;;;3.87;2.27;;;16.30;79.60;;;19.15;52.71;100831.47;4995162;28;20194;-60
2023/07/26 03:50:02;;;;;;;6.63;2.33;;;16.30;79.50;;;19.16;52.57;100839.25;5003651;28;20572;-59
2023/07/26 03:52:29;;;;;;;5.07;2.20;;;16.30;79.50;;;19.17;52.73;100834.72;5013573;28;20318;-60
2023/07/26 03:54:58;;;;;;;3.13;2.17;;;16.30;79.40;;;19.15;52.59;100839.50;5014650;28;20675;-59
2023/07/26 03:57:25;;;;;;;3.63;2.43;;;16.30;79.50;;;19.16;52.58;100841.13;5010059;28;20274;-59
2023/07/26 03:59:52;;;;;;;4.00;2.40;;;16.30;79.50;;;19.18;52.61;100847.03;4994309;28;20294;-58
2023/07/26 04:02:19;;;;;;;4.43;2.10;;;16.30;79.50;;;19.17;52.74;100848.88;4994863;28;20593;-57
2023/07/26 04:04:46;;;;;;;3.93;2.40;;;16.30;79.50;;;19.19;52.64;100848.66;4994984;28;20192;-62
2023/07/26 04:07:13;;;;;;;3.07;2.00;;;16.30;79.50;;;19.18;52.71;100847.88;4995051;28;20278;-59
2023/07/26 04:09:40;;;;;;;3.57;2.27;;;16.30;79.60;;;19.19;52.82;100854.00;5009342;28;20222;-60
2023/07/26 04:12:09;;;;;;;2.20;2.00;;;16.30;79.70;;;19.19;52.68;100851.31;4994487;28;20196;-60
2023/07/26 04:14:36;;;;;;;2.43;2.20;;;16.30;79.70;;;19.17;52.91;100853.41;4994753;28;20234;-61
2023/07/26 04:17:03;;;;;;;3.73;2.60;;;16.30;79.60;;;19.13;52.90;100846.91;4994711;28;20747;-60
2023/07/26 04:19:30;;;;;;;3.53;2.17;;;16.30;79.70;;;19.14;52.85;100856.53;4994094;28;20231;-61
2023/07/26 04:21:57;;;;;;;3.00;2.23;;;16.30;79.80;;;19.15;52.64;100863.50;4994580;28;20227;-60
2023/07/26 04:24:25;;;;;;;2.77;2.30;;;16.30;79.80;;;19.18;52.83;100858.53;4994780;28;20183;-60
2023/07/26 04:26:54;;;;;;;3.80;2.37;;;16.30;79.90;;;19.18;52.55;100868.41;4994334;28;20192;-60
2023/07/26 04:29:23;;;;;;;5.70;2.83;;;16.30;79.80;;;19.19;52.92;100864.66;4994315;28;20238;-59
2023/07/26 04:31:50;;;;;;;4.37;2.33;;;16.30;79.80;;;19.21;52.91;100865.25;4994554;28;20199;-60
2023/07/26 04:34:17;;;;;;;4.17;1.97;;;16.30;79.80;;;19.21;52.91;100878.59;4994310;28;20295;-60
2023/07/26 04:36:44;;;;;;;2.70;2.10;;;16.30;79.80;;;19.23;52.87;100876.53;4994150;28;20684;-61
2023/07/26 04:39:11;;;;;;;3.53;2.10;;;16.30;80.10;;;19.28;52.62;100868.66;4993206;28;20235;-60
2023/07/26 04:41:38;;;;;;;3.53;2.40;;;16.30;80.00;;;19.33;52.59;100876.78;4994214;28;20200;-61
2023/07/26 04:44:05;;;;;;;4.13;2.13;;;16.40;80.20;;;19.36;52.56;100879.84;4994234;28;20320;-60
2023/07/26 04:46:35;;;;;;;3.03;2.67;;;16.40;80.10;;;19.39;52.57;100875.91;4994652;28;20200;-61
2023/07/26 04:49:02;;;;;;;3.90;2.17;;;16.40;79.90;;;19.43;52.41;100877.06;4994821;28;20308;-60
2023/07/26 04:51:29;;;;;;;2.83;2.00;;;16.50;80.00;;;19.45;52.33;100870.47;5013266;28;20286;-60
2023/07/26 04:53:57;;;;;;;2.60;1.90;;;16.50;79.90;;;19.50;52.37;100867.09;5013854;28;20294;-60
2023/07/26 04:56:26;;;;;;;4.87;2.40;;;16.50;79.80;;;19.53;52.54;100872.00;5013808;28;20195;-61
2023/07/26 04:58:53;;;;;;;2.80;2.23;;;16.60;79.90;;;19.56;52.53;100884.88;4996471;28;20199;-61
2023/07/26 05:01:20;;;;;;;3.40;2.07;;;16.60;79.80;;;19.59;52.09;100881.75;4993468;28;20679;-59
2023/07/26 05:03:49;;;;;;;3.73;2.50;;;16.60;79.90;;;19.63;52.12;100888.28;4993954;28;20264;-60
2023/07/26 05:06:16;;;;;;;4.80;2.40;;;16.60;79.80;;;19.66;52.48;100898.47;4992388;28;20212;-61
2023/07/26 05:08:43;;;;;;;4.20;2.37;;;16.70;79.90;;;19.67;52.15;100892.09;4993594;28;20191;-59
2023/07/26 05:11:10;;;;;;;4.83;2.77;;;16.70;79.70;;;19.68;52.29;100891.06;4993999;28;20203;-60
2023/07/26 05:13:40;;;;;;;3.33;2.20;;;16.70;80.40;;;19.67;51.99;100901.97;4993600;28;20215;-62
2023/07/26 05:16:07;;;;;;;5.87;2.80;;;16.70;79.40;;;19.68;52.09;100895.59;5009136;28;20275;-59
2023/07/26 05:18:34;;;;;;;5.17;2.50;;;16.70;79.50;;;19.72;51.98;100896.75;4993390;28;20198;-61
2023/07/26 05:21:02;;;;;;;4.23;2.60;;;16.80;79.70;;;19.77;52.40;100902.22;4993626;28;20628;-61
2023/07/26 05:23:29;;;;;;;2.50;2.30;;;16.80;79.80;;;19.79;51.92;100908.97;4993512;28;20681;-61
2023/07/26 05:25:57;;;;;;;3.90;2.10;;;16.80;79.70;;;19.84;52.27;100911.75;4992710;28;20223;-60
2023/07/26 05:28:24;;;;;;;3.30;2.00;;;16.80;79.70;;;19.86;51.88;100915.00;4993609;28;20271;-60
2023/07/26 05:30:56;;;;;;;2.97;2.60;;;16.80;79.60;;;19.87;51.77;100916.63;4992218;28;20294;-60
2023/07/26 05:33:23;;;;;;;2.77;2.47;;;16.90;79.60;;;19.91;52.13;100914.31;4993559;28;20751;-60
2023/07/26 05:35:50;;;;;;;3.03;2.30;;;16.90;79.70;;;19.97;52.02;100916.03;4993779;28;20223;-61
2023/07/26 05:38:19;;;;;;;2.87;2.37;;;16.90;79.70;;;20.00;52.09;100916.41;4993216;28;20588;-61
2023/07/26 05:40:46;;;;;;;3.30;3.00;;;17.00;79.50;;;20.03;52.09;100915.94;4992925;28;20350;-61
2023/07/26 05:43:13;;;;;;;3.33;3.00;;;17.00;79.50;;;20.08;51.75;100920.59;4993413;28;20200;-61
2023/07/26 05:45:41;;;;;;;5.70;2.57;;;17.00;79.40;;;20.09;51.43;100920.34;4993299;28;20219;-61
2023/07/26 05:48:08;;;;;;;2.57;2.37;;;17.00;79.20;;;20.07;51.95;100919.78;4993367;28;20200;-61
2023/07/26 05:50:36;;;;;;;3.57;2.83;;;17.10;79.30;;;20.08;51.44;100916.06;5006196;28;20219;-60
2023/07/26 05:53:03;;;;;;;3.47;3.17;;;17.10;79.30;;;20.07;51.72;100921.63;5016413;28;20620;-61
2023/07/26 05:55:31;;;;;;;4.17;2.70;;;17.10;79.40;;;20.09;52.09;100925.69;5016953;28;20279;-60
2023/07/26 05:57:58;;;;;;;5.40;3.00;;;17.10;79.50;;;20.15;52.09;100921.28;5007706;28;20282;-61
2023/07/26 06:00:26;;;;;;;6.10;2.53;;;17.10;79.70;;;20.24;51.56;100923.41;4996290;28;20635;-59
2023/07/26 06:02:53;;;;;;;5.67;2.73;;;17.20;79.80;;;20.30;52.00;100924.31;4996304;28;20300;-61
2023/07/26 06:05:20;;;;;;;5.87;2.63;;;17.20;79.70;;;20.35;51.50;100926.31;4996779;28;20203;-61
2023/07/26 06:07:49;;;;;;;3.03;2.73;;;17.20;79.60;;;20.38;51.76;100923.16;4996499;28;20228;-60
2023/07/26 06:10:16;;;;;;;3.67;3.13;;;17.30;79.50;;;20.45;51.25;100935.38;4996622;28;20207;-58
2023/07/26 06:12:45;;;;;;;4.00;2.73;;;17.30;79.40;;;20.50;51.31;100930.13;4996863;28;20246;-59
2023/07/26 06:15:12;;;;;;;3.50;3.00;;;17.40;79.40;;;20.54;51.55;100927.81;4996567;28;20720;-61
2023/07/26 06:17:39;;;;;;;2.80;2.50;;;17.40;79.20;;;20.53;50.92;100934.19;4996210;28;20231;-59
2023/07/26 06:20:10;;;;;;;2.97;2.53;;;17.50;79.00;;;20.50;51.41;100938.16;4995760;28;20219;-59
2023/07/26 06:22:37;;;;;;;3.57;2.70;;;17.50;78.80;;;20.47;51.56;100921.75;4996597;28;20267;-60
2023/07/26 06:25:05;;;;;;;4.30;3.33;;;17.50;78.70;;;20.47;51.61;100937.81;4995989;28;20227;-60
2023/07/26 06:27:32;;;;;;;4.27;2.77;;;17.50;79.00;;;20.51;51.61;100933.63;4996236;28;20263;-61
2023/07/26 06:30:00;;;;;;;5.53;2.80;;;17.50;79.10;;;20.61;51.13;100934.66;4995785;28;20314;-60
2023/07/26 06:32:27;;;;;;;6.33;3.70;;;17.50;79.20;;;20.70;51.47;100943.13;4994848;28;20267;-59
2023/07/26 06:34:56;;;;;;;3.10;2.70;;;17.60;79.20;;;20.77;51.27;100933.94;4996132;28;20220;-59
2023/07/26 06:37:23;;;;;;;4.27;2.77;;;17.60;79.00;;;20.82;50.93;100935.91;4996280;28;20192;-59
2023/07/26 06:39:51;;;;;;;5.27;3.70;;;17.70;78.70;;;20.83;51.04;100937.50;4995831;28;20218;-61
2023/07/26 06:42:18;;;;;;;4.10;3.67;;;17.70;78.60;;;20.85;50.80;100930.06;4996005;28;20685;-60
2023/07/26 06:44:45;;;;;;;4.17;2.63;;;17.80;78.60;;;20.88;51.17;100929.59;4996222;28;20188;-60
2023/07/26 06:47:13;;;;;;;3.70;2.90;;;17.80;78.60;;;20.91;51.03;100931.78;4995876;28;20693;-59
2023/07/26 06:49:40;;;;;;;2.73;2.50;;;17.90;78.40;;;20.92;50.75;100936.09;5000994;28;20234;-61
2023/07/26 06:52:07;;;;;;;7.60;3.13;;;17.90;78.00;;;20.96;50.55;100931.06;5015226;28;20310;-59
2023/07/26 06:54:36;;;;;;;5.40;2.70;;;18.00;78.10;;;21.01;50.85;100937.34;5015304;28;20324;-61
2023/07/26 06:57:04;;;;;;;6.00;2.80;;;18.00;78.20;;;21.13;50.60;100927.44;5013665;28;20195;-60
2023/07/26 06:59:31;;;;;;;6.07;3.07;;;18.00;78.20;;;21.29;49.99;100934.72;4993148;28;20238;-60
2023/07/26 07:01:58;;;;;;;4.10;2.70;;;18.10;78.40;;;21.46;49.71;100929.38;4990329;28;20295;-60
2023/07/26 07:04:27;;;;;;;6.03;2.87;;;18.20;78.00;;;21.56;50.00;100930.38;4976327;28;20557;-58
2023/07/26 07:06:54;;;;;;;4.77;3.17;;;18.30;77.50;;;21.66;48.87;100931.59;4994587;28;20208;-61
2023/07/26 07:09:21;;;;;;;4.33;2.27;;;18.30;76.80;;;21.77;48.84;100930.72;4994960;28;20655;-58
2023/07/26 07:11:48;;;;;;;3.17;2.00;;;18.50;76.80;;;21.91;48.62;100934.72;4995756;28;20278;-58
2023/07/26 07:14:15;;;;;;;3.10;2.40;;;18.60;76.60;;;22.05;48.38;100928.78;4995600;28;20259;-59
2023/07/26 07:16:42;;;;;;;3.07;2.10;;;18.70;76.40;;;22.23;48.00;100933.88;4991498;28;20315;-60
2023/07/26 07:19:09;;;;;;;2.83;2.60;;;18.80;75.90;;;22.35;47.73;100933.78;4993731;28;20212;-58
2023/07/26 07:21:37;;;;;;;4.43;2.63;;;18.90;75.10;;;22.43;47.29;100937.91;4994634;28;20566;-58
2023/07/26 07:24:05;;;;;;;3.80;2.17;;;19.00;74.60;;;22.42;47.09;100936.28;4995254;28;20688;-60
2023/07/26 07:26:32;;;;;;;3.50;2.37;;;19.10;73.90;;;22.45;47.00;100944.66;4995164;28;20668;-60
2023/07/26 07:28:59;;;;;;;2.93;2.10;;;19.20;73.90;;;22.54;46.08;100937.81;4994233;28;20204;-59
2023/07/26 07:31:26;;;;;;;3.77;2.10;;;19.20;72.60;;;22.62;45.96;100941.97;4994715;28;20701;-60
2023/07/26 07:33:53;;;;;;;2.40;2.10;;;19.30;72.10;;;22.63;45.64;100939.03;4995290;28;20212;-60
2023/07/26 07:36:20;;;;;;;3.00;2.00;;;19.30;71.50;;;22.66;45.39;100938.53;4995361;28;20202;-59
2023/07/26 07:38:49;;;;;;;2.00;1.80;;;19.40;71.40;;;22.71;45.18;100929.72;4994588;28;20222;-62
2023/07/26 07:41:16;;;;;;;4.27;2.00;;;19.40;71.00;;;22.81;45.37;100929.88;4994523;28;20739;-59
2023/07/26 07:43:43;;;;;;;2.67;1.90;;;19.50;71.20;;;22.92;45.30;100929.72;4994619;28;20274;-59
2023/07/26 07:46:10;;;;;;;5.03;2.07;;;19.60;70.80;;;22.99;44.56;100931.44;4994150;28;20291;-60
2023/07/26 07:48:40;;;;;;;2.83;1.90;;;19.70;70.20;;;22.99;44.19;100926.06;4993571;28;20223;-59
2023/07/26 07:51:07;;;;;;;2.20;1.60;;;19.70;69.70;;;22.99;44.28;100931.44;4995868;28;20330;-60
2023/07/26 07:53:34;;;;;;;3.93;2.17;;;19.80;69.60;;;22.96;44.21;100929.22;4986492;28;20224;-60
2023/07/26 07:56:02;;;;;;;2.00;1.77;;;19.80;69.40;;;22.92;44.28;100937.78;4974944;28;20228;-57
2023/07/26 07:58:29;;;;;;;2.40;1.93;;;19.80;69.10;;;22.91;44.32;100935.34;4987382;28;20568;-59
2023/07/26 08:00:58;;;;;;;3.93;2.10;;;19.80;68.90;;;22.92;44.01;100942.34;4989860;28;20223;-61
2023/07/26 08:03:25;;;;;;;1.67;1.57;;;19.80;68.40;;;22.95;43.99;100954.44;4981180;28;20251;-59
2023/07/26 08:05:54;;;;;;;2.77;1.83;;;19.80;68.50;;;23.05;43.64;100939.28;4993392;28;20676;-59
2023/07/26 08:08:22;;;;;;;5.20;2.00;;;19.90;68.10;;;23.63;43.31;100949.28;4994110;28;20246;-62
2023/07/26 08:10:50;;;;;;;2.53;1.90;;;20.00;68.90;;;24.52;41.37;100947.56;4993989;28;20211;-61
2023/07/26 08:13:19;;;;;;;5.03;2.20;;;20.30;68.10;;;25.46;39.50;100948.19;4987946;28;20216;-60
2023/07/26 08:15:46;;;;;;;1.70;1.60;;;20.70;66.40;;;26.53;38.64;100951.69;4974526;28;20780;-61
2023/07/26 08:18:14;;;;;;;3.83;1.63;;;21.30;65.80;;;27.73;37.00;100947.56;4992774;28;20239;-61
2023/07/26 08:20:41;;;;;;;1.50;1.40;;;21.90;65.80;;;28.69;34.06;100946.66;4994173;28;20767;-61
2023/07/26 08:23:08;;;;;;;3.30;2.07;;;22.60;61.80;;;29.12;33.20;100945.53;4993986;28;20206;-61
2023/07/26 08:25:36;;;;;;;2.03;1.73;;;23.20;59.20;;;29.07;33.01;100947.50;4994260;28;20595;-59
2023/07/26 08:28:03;;;;;;;2.50;1.60;;;23.70;57.30;;;29.40;32.71;100952.75;4994475;28;20195;-62
2023/07/26 08:30:32;;;;;;;2.30;1.60;;;24.00;56.30;;;29.83;31.53;100956.19;4993730;28;20689;-61
2023/07/26 08:32:59;;;;;;;3.07;1.80;;;24.40;55.00;;;29.91;31.08;100951.94;4993947;28;20621;-61
2023/07/26 08:35:27;;;;;;;3.93;1.90;;;24.70;53.60;;;30.00;30.49;100944.75;5008738;28;20311;-60
2023/07/26 08:37:54;;;;;;;4.47;1.50;;;25.00;52.40;;;30.42;29.48;100952.69;4993950;28;20230;-60
2023/07/26 08:40:21;;;;;;;1.87;1.70;;;25.20;52.00;;;30.29;29.19;100939.84;4991873;28;20239;-60
2023/07/26 08:42:49;;;;;;;1.70;1.50;;;25.30;49.70;;;29.46;29.97;100951.56;4993493;28;20538;-61
2023/07/26 08:45:17;;;;;;;4.00;1.80;;;25.30;50.00;;;29.08;30.82;100946.41;4993783;28;20219;-60
2023/07/26 08:47:46;;;;;;;1.70;1.60;;;25.30;49.30;;;28.77;30.87;100943.28;4994029;28;20192;-61
2023/07/26 08:50:14;;;;;;;3.30;1.90;;;25.10;49.30;;;28.36;31.18;100939.41;4998364;28;20223;-61
2023/07/26 08:52:42;;;;;;;1.37;1.27;;;24.90;48.70;;;28.59;31.32;100938.59;4993769;28;20203;-59
2023/07/26 08:55:11;;;;;;;3.70;1.63;;;24.70;49.90;;;29.83;30.36;100944.50;4992906;28;20680;-61
2023/07/26 08:57:41;;;;;;;2.97;1.87;;;24.80;51.10;;;31.27;28.78;100932.97;4993061;28;20211;-59
2023/07/26 09:00:13;;;;;;;1.90;1.80;;;25.10;51.40;;;31.49;27.97;100927.56;4992440;28;20211;-60
2023/07/26 09:02:46;;;;;;;2.07;1.50;;;25.60;49.50;;;31.02;28.54;100944.41;4992937;28;20290;-62
2023/07/26 09:05:14;;;;;;;1.37;1.27;;;25.90;48.00;;;30.21;28.19;100932.41;4986447;28;20216;-62
2023/07/26 09:07:41;;;;;;;1.90;1.70;;;25.80;46.50;;;29.56;28.96;100928.09;4988623;28;21997;-59
2023/07/26 09:10:08;;;;;;;2.10;1.90;;;25.60;46.60;;;29.55;29.83;100938.13;4992649;28;20624;-60
2023/07/26 09:12:36;;;;;;;2.93;1.77;;;25.40;47.70;;;29.37;29.57;100937.06;4996884;28;20649;-60
2023/07/26 09:15:05;;;;;;;2.03;1.80;;;25.20;47.70;;;28.83;30.38;100928.59;4994071;28;20303;-62
2023/07/26 09:17:40;;;;;;;2.53;1.73;;;25.00;48.00;;;28.16;30.95;100933.13;4989231;28;20280;-60
2023/07/26 09:20:20;;;;;;;2.23;2.00;;;24.60;49.10;;;27.49;32.23;100949.34;4989188;28;20241;-60
2023/07/26 09:22:59;;;;;;;1.67;1.57;;;24.30;49.70;;;26.84;33.35;100943.19;4983594;28;20209;-59
2023/07/26 09:25:34;;;;;;;2.70;2.13;;;23.80;51.20;;;26.41;34.20;100951.94;4985894;28;20195;-58
2023/07/26 09:28:03;;;;;;;1.60;1.30;;;23.40;52.50;;;26.27;34.99;100953.59;4985400;28;20198;-60
2023/07/26 09:30:35;;;;;;;2.97;1.60;;;23.00;53.50;;;26.34;35.17;100948.72;4990876;28;20263;-61
2023/07/26 09:33:05;;;;;;;3.00;1.93;;;22.80;55.30;;;26.31;36.32;100949.31;4990443;28;20295;-60
2023/07/26 09:35:43;;;;;;;2.70;1.90;;;22.70;56.60;;;26.16;36.99;100947.44;5005852;28;20220;-60
2023/07/26 09:38:11;;;;;;;2.67;1.37;;;22.60;57.60;;;26.24;36.82;100937.16;4992860;28;20206;-58
2023/07/26 09:40:38;;;;;;;2.90;1.60;;;22.60;57.70;;;26.76;36.80;100938.38;4994939;28;20349;-60
2023/07/26 09:43:06;;;;;;;2.03;1.83;;;22.60;58.70;;;27.81;35.57;100932.59;5014351;28;20578;-59
2023/07/26 09:45:36;;;;;;;1.93;1.60;;;22.80;59.50;;;29.34;31.68;100924.09;5005795;28;20203;-59
2023/07/26 09:48:09;;;;;;;1.53;1.37;;;23.20;55.60;;;30.46;28.90;100931.94;4980527;28;20202;-62
2023/07/26 09:50:43;;;;;;;1.93;1.43;;;23.80;52.60;;;31.44;27.58;100930.41;4994977;28;20313;-61
2023/07/26 09:53:12;;;;;;;1.60;1.50;;;24.40;51.90;;;32.04;27.26;100930.84;5001139;28;20699;-60
2023/07/26 09:55:40;;;;;;;1.73;1.50;;;25.00;50.80;;;33.16;26.03;100926.56;4992986;28;20224;-60
2023/07/26 09:58:08;;;;;;;2.70;1.37;;;25.60;49.00;;;34.20;24.58;100917.91;4995009;28;20234;-59
2023/07/26 10:00:37;;;;;;;1.83;1.67;;;26.20;47.50;;;35.33;23.50;100925.09;4990505;28;20212;-62
2023/07/26 10:03:06;;;;;;;2.23;1.33;;;26.90;46.10;;;36.02;21.59;100932.69;4995264;28;20211;-57
2023/07/26 10:05:42;;;;;;;1.37;1.27;;;27.50;42.90;;;36.05;21.08;100915.53;4987032;28;20205;-60
2023/07/26 10:08:11;;;;;;;1.67;1.57;;;27.90;41.30;;;36.28;21.29;100914.75;4999067;28;20201;-60
2023/07/26 10:10:40;;;;;;;5.93;1.50;;;28.40;40.70;;;36.49;20.65;100907.25;4991836;28;20531;-61
2023/07/26 10:13:10;;;;;;;1.53;1.43;;;28.70;38.20;;;36.05;20.81;100918.28;5005697;28;20233;-60
2023/07/26 10:15:41;;;;;;;1.50;1.40;;;28.70;37.80;;;35.68;21.53;100915.47;5012026;28;20211;-61